Time;durP1;ratioP1;P1;durP2;ratioP2;P2;SDS_P1;SDS_P2;PMS_P1;PMS_P2;Temp;Humidity;BMP_temperature;BMP_pressure;BME280_temperature;BME280_humidity;BME280_pressure;Samples;Min_cycle;Max_cycle;Signal;HPM_P1;HPM_P2
2023/09/21 00:01:11;;;;;;;104.75;64.55;;;28.40;99.90;;;;;;5135137;27;20026;-67
2023/09/21 00:03:39;;;;;;;108.97;66.55;;;28.30;99.90;;;;;;5134877;27;20023;-67
2023/09/21 00:06:06;;;;;;;107.80;66.53;;;28.30;99.90;;;;;;5134857;27;20081;-67
2023/09/21 00:08:33;;;;;;;89.32;59.22;;;28.30;99.90;;;;;;5135041;27;20504;-66
2023/09/21 00:11:12;;;;;;;92.03;61.53;;;28.40;99.90;;;;;;5134887;27;20030;-66
2023/09/21 00:13:39;;;;;;;101.20;61.88;;;28.50;99.90;;;;;;5134869;27;20023;-65
2023/09/21 00:16:11;;;;;;;99.10;61.85;;;28.30;99.90;;;;;;5135041;27;20374;-67
2023/09/21 00:18:38;;;;;;;;;;;28.40;99.90;;;;;;5135031;27;20128;-67
2023/09/21 00:21:06;;;;;;;93.15;61.28;;;28.60;99.90;;;;;;5134324;27;20002;-66
2023/09/21 00:23:33;;;;;;;100.28;60.97;;;28.50;99.90;;;;;;5134608;27;20136;-67
2023/09/21 00:26:00;;;;;;;103.00;62.08;;;28.60;99.90;;;;;;5134514;27;20025;-67
2023/09/21 00:28:28;;;;;;;102.32;60.60;;;28.60;99.90;;;;;;5134761;27;20493;-67
2023/09/21 00:30:57;;;;;;;96.65;61.60;;;28.70;99.90;;;;;;5134575;27;20038;-67
2023/09/21 00:33:27;;;;;;;99.97;60.05;;;28.70;99.90;;;;;;5134448;27;20475;-66
2023/09/21 00:36:05;;;;;;;101.70;59.30;;;28.80;99.90;;;;;;5134605;27;20027;-67
2023/09/21 00:38:32;;;;;;;91.47;55.53;;;28.80;99.90;;;;;;5134609;27;20423;-67
2023/09/21 00:41:01;;;;;;;89.60;56.35;;;29.00;99.90;;;;;;5134341;27;20114;-67
2023/09/21 00:43:28;;;;;;;80.32;55.35;;;29.00;99.90;;;;;;5134523;27;20050;-67
2023/09/21 00:45:57;;;;;;;81.28;53.17;;;29.00;99.90;;;;;;5134359;27;20027;-65
2023/09/21 00:48:33;;;;;;;86.85;55.22;;;29.20;99.90;;;;;;5134368;27;20031;-66
2023/09/21 00:51:07;;;;;;;82.85;50.45;;;29.30;99.90;;;;;;5134166;27;20111;-66
2023/09/21 00:53:36;;;;;;;71.55;47.20;;;29.20;99.90;;;;;;5134135;28;20435;-67
2023/09/21 00:56:09;;;;;;;69.03;47.88;;;29.30;99.90;;;;;;5134347;28;20099;-67
2023/09/21 00:58:39;;;;;;;77.40;48.08;;;29.30;99.90;;;;;;5134251;28;20019;-66
2023/09/21 01:01:27;;;;;;;61.88;43.92;;;29.20;99.90;;;;;;5134332;28;20493;-67
2023/09/21 01:03:53;;;;;;;63.83;44.67;;;29.40;99.90;;;;;;5133981;28;20123;-67
2023/09/21 01:06:20;;;;;;;68.20;45.25;;;29.20;99.90;;;;;;5134246;28;20019;-67
2023/09/21 01:08:47;;;;;;;71.55;47.10;;;29.20;99.90;;;;;;5134278;28;20026;-67
2023/09/21 01:11:14;;;;;;;71.53;46.38;;;29.20;99.90;;;;;;5133936;28;20019;-67
2023/09/21 01:13:41;;;;;;;76.45;49.03;;;29.20;99.90;;;;;;5134093;28;20023;-67
2023/09/21 01:16:13;;;;;;;75.60;46.67;;;29.20;99.90;;;;;;5134322;28;20016;-67
2023/09/21 01:18:40;;;;;;;79.70;52.90;;;29.30;99.90;;;;;;5134073;28;20102;-67
2023/09/21 01:21:13;;;;;;;80.95;49.65;;;29.30;99.90;;;;;;5134163;28;20539;-67
2023/09/21 01:23:45;;;;;;;77.28;52.40;;;29.30;99.90;;;;;;5134052;28;20467;-67
2023/09/21 01:26:12;;;;;;;;;;;29.30;99.90;;;;;;5134509;28;20030;-67
2023/09/21 01:28:39;;;;;;;67.70;43.22;;;29.50;99.90;;;;;;5134099;28;19939;-67
2023/09/21 01:31:05;;;;;;;65.82;45.50;;;29.30;99.90;;;;;;5133875;28;20463;-66
2023/09/21 01:33:33;;;;;;;78.07;50.05;;;29.30;99.90;;;;;;5135244;27;20027;-66
2023/09/21 01:36:00;;;;;;;87.10;48.03;;;29.40;99.90;;;;;;5137936;27;20030;-67
2023/09/21 01:38:27;;;;;;;73.10;49.58;;;29.30;99.90;;;;;;5137910;27;20473;-67
2023/09/21 01:40:54;;;;;;;72.13;45.45;;;29.40;99.90;;;;;;5137656;27;20106;-68
2023/09/21 01:43:21;;;;;;;89.18;53.42;;;29.50;99.90;;;;;;5137947;27;20151;-66
2023/09/21 01:45:49;;;;;;;91.05;57.10;;;29.50;99.90;;;;;;5137953;27;20023;-66
2023/09/21 01:48:18;;;;;;;84.90;49.47;;;29.60;99.90;;;;;;5137643;27;20020;-66
2023/09/21 01:50:47;;;;;;;82.70;55.90;;;29.60;99.90;;;;;;5137495;27;20061;-67
2023/09/21 01:53:17;;;;;;;82.30;55.05;;;29.70;99.90;;;;;;5137696;27;20082;-66
2023/09/21 01:55:44;;;;;;;65.13;45.53;;;29.60;99.90;;;;;;5137580;27;20756;-67
2023/09/21 01:58:11;;;;;;;77.70;49.47;;;29.80;99.90;;;;;;5137572;27;20019;-67
2023/09/21 02:00:39;;;;;;;75.15;47.95;;;29.80;99.90;;;;;;5137554;27;20023;-65
2023/09/21 02:03:09;;;;;;;75.55;47.58;;;29.90;99.90;;;;;;5137544;27;20031;-67
2023/09/21 02:05:38;;;;;;;71.43;46.60;;;29.90;99.90;;;;;;5137598;27;20067;-66
2023/09/21 02:08:05;;;;;;;72.10;50.33;;;30.00;99.90;;;;;;5137286;27;20050;-66
2023/09/21 02:10:34;;;;;;;74.72;47.70;;;30.10;99.90;;;;;;5137552;27;20102;-67
2023/09/21 02:13:05;;;;;;;67.68;45.55;;;30.20;99.90;;;;;;5137276;27;20106;-67
2023/09/21 02:15:37;;;;;;;75.13;44.97;;;30.20;99.90;;;;;;5137047;27;20082;-68
2023/09/21 02:18:05;;;;;;;63.90;45.13;;;30.30;99.90;;;;;;5137070;27;20487;-68
2023/09/21 02:20:38;;;;;;;70.05;43.67;;;30.30;99.90;;;;;;5136962;27;20027;-67
2023/09/21 02:23:05;;;;;;;63.65;39.85;;;30.30;99.90;;;;;;5136778;27;20038;-67
2023/09/21 02:25:35;;;;;;;67.68;42.78;;;30.30;99.90;;;;;;5137009;27;20015;-68
2023/09/21 02:28:09;;;;;;;60.38;39.58;;;30.50;99.90;;;;;;5137043;27;20025;-65
2023/09/21 02:30:39;;;;;;;71.03;42.05;;;30.20;99.90;;;;;;5137677;27;20094;-67
2023/09/21 02:33:07;;;;;;;57.83;36.55;;;30.30;99.90;;;;;;5137242;27;20098;-67
2023/09/21 02:35:35;;;;;;;55.55;34.70;;;30.20;99.90;;;;;;5137028;27;20059;-67
2023/09/21 02:38:03;;;;;;;48.45;34.55;;;30.40;99.90;;;;;;5137208;27;20024;-67
2023/09/21 02:40:29;;;;;;;54.50;33.83;;;30.60;99.90;;;;;;5137147;27;20051;-67
2023/09/21 02:42:56;;;;;;;45.47;33.10;;;30.60;99.90;;;;;;5136966;27;20080;-66
2023/09/21 02:45:24;;;;;;;49.70;31.63;;;30.80;99.90;;;;;;5136767;27;20019;-67
2023/09/21 02:47:54;;;;;;;43.42;28.77;;;31.00;99.90;;;;;;5137224;27;20019;-67
2023/09/21 02:50:22;;;;;;;42.67;28.35;;;31.00;99.90;;;;;;5136866;27;20426;-67
2023/09/21 02:52:51;;;;;;;42.78;29.52;;;31.10;99.90;;;;;;5137002;27;20094;-67
2023/09/21 02:55:20;;;;;;;39.92;28.73;;;31.20;99.90;;;;;;5136924;27;20412;-67
2023/09/21 02:57:54;;;;;;;44.95;29.20;;;31.10;99.90;;;;;;5136652;27;20110;-67
2023/09/21 03:00:34;;;;;;;34.72;26.45;;;31.10;99.90;;;;;;5136928;27;20490;-67
2023/09/21 03:03:10;;;;;;;43.38;26.88;;;31.30;99.90;;;;;;5136668;27;20031;-67
2023/09/21 03:05:38;;;;;;;40.45;26.00;;;31.30;99.90;;;;;;5136810;27;20028;-67
2023/09/21 03:08:09;;;;;;;43.90;26.67;;;31.40;99.90;;;;;;5136669;27;20181;-67
2023/09/21 03:10:36;;;;;;;41.05;27.05;;;31.50;99.90;;;;;;5136818;27;20065;-67
2023/09/21 03:13:05;;;;;;;40.53;27.65;;;31.60;99.90;;;;;;5136542;27;20029;-67
2023/09/21 03:15:34;;;;;;;39.90;28.55;;;31.70;99.90;;;;;;5136444;27;20057;-68
2023/09/21 03:18:00;;;;;;;45.00;29.60;;;31.70;99.90;;;;;;5136050;27;20034;-69
2023/09/21 03:20:31;;;;;;;45.17;29.63;;;31.70;99.90;;;;;;5136546;27;20472;-66
2023/09/21 03:22:59;;;;;;;40.92;28.42;;;31.80;99.90;;;;;;5136229;27;20544;-65
2023/09/21 03:25:29;;;;;;;47.92;30.70;;;31.90;99.90;;;;;;5136398;27;20019;-66
2023/09/21 03:27:56;;;;;;;40.45;28.92;;;31.90;99.90;;;;;;5136410;27;20023;-66
2023/09/21 03:30:24;;;;;;;37.45;27.40;;;31.90;99.90;;;;;;5136046;27;20039;-66
2023/09/21 03:32:52;;;;;;;49.65;30.10;;;31.90;99.90;;;;;;5136106;27;20452;-66
2023/09/21 03:35:20;;;;;;;45.55;26.45;;;31.90;99.90;;;;;;5136250;27;20364;-66
2023/09/21 03:37:50;;;;;;;35.83;26.85;;;32.00;99.90;;;;;;5135767;27;20031;-66
2023/09/21 03:40:18;;;;;;;40.90;27.38;;;32.10;99.90;;;;;;5136147;27;20106;-66
2023/09/21 03:42:44;;;;;;;39.40;27.67;;;32.20;99.90;;;;;;5135889;27;20080;-64
2023/09/21 03:45:16;;;;;;;77.60;46.30;;;32.30;99.90;;;;;;5136133;27;20554;-65
2023/09/21 03:47:43;;;;;;;52.67;35.88;;;32.30;99.90;;;;;;5136026;27;20076;-66
2023/09/21 03:50:12;;;;;;;64.85;41.10;;;32.40;99.90;;;;;;5135500;27;20616;-66
2023/09/21 03:52:40;;;;;;;50.00;34.80;;;32.40;99.90;;;;;;5135664;27;20070;-66
2023/09/21 03:55:10;;;;;;;71.68;45.00;;;32.50;99.90;;;;;;5135590;27;20495;-66
2023/09/21 03:57:38;;;;;;;62.78;39.20;;;32.40;99.90;;;;;;5134933;27;20031;-66
2023/09/21 04:00:21;;;;;;;53.78;34.88;;;32.40;99.90;;;;;;5135379;27;20382;-66
2023/09/21 04:02:47;;;;;;;53.13;35.15;;;32.30;99.90;;;;;;5134901;27;20160;-66
2023/09/21 04:05:18;;;;;;;47.13;33.65;;;32.30;99.90;;;;;;5135009;27;20398;-67
2023/09/21 04:07:48;;;;;;;49.80;31.70;;;32.40;99.90;;;;;;5134882;27;20023;-66
2023/09/21 04:10:15;;;;;;;43.38;28.08;;;32.50;99.90;;;;;;5134837;27;20031;-69
2023/09/21 04:12:45;;;;;;;44.90;28.83;;;32.60;99.90;;;;;;5134853;27;20023;-66
2023/09/21 04:15:12;;;;;;;44.47;29.67;;;32.70;99.90;;;;;;5135002;27;20040;-66
2023/09/21 04:17:39;;;;;;;49.47;34.65;;;32.70;99.90;;;;;;5134787;27;20094;-66
2023/09/21 04:20:11;;;;;;;48.63;34.30;;;32.90;99.90;;;;;;5134753;27;20019;-66
2023/09/21 04:22:39;;;;;;;44.20;31.55;;;32.90;99.90;;;;;;5134701;27;20034;-67
2023/09/21 04:25:10;;;;;;;46.75;30.45;;;32.90;99.90;;;;;;5134452;27;20027;-66
2023/09/21 04:27:39;;;;;;;49.40;33.08;;;33.00;99.90;;;;;;5134816;27;20019;-67
2023/09/21 04:30:09;;;;;;;50.83;34.83;;;33.10;99.90;;;;;;5134584;27;20019;-65
2023/09/21 04:32:38;;;;;;;65.80;41.63;;;33.20;99.90;;;;;;5134486;27;20023;-67
2023/09/21 04:35:06;;;;;;;95.03;57.22;;;33.20;99.90;;;;;;5134542;27;20098;-67
2023/09/21 04:37:34;;;;;;;85.72;54.50;;;33.50;99.90;;;;;;5134375;27;20023;-67
2023/09/21 04:40:05;;;;;;;89.18;57.70;;;33.50;99.90;;;;;;5134476;27;20044;-66
2023/09/21 04:42:34;;;;;;;88.05;50.03;;;33.50;99.90;;;;;;5134600;27;20046;-67
2023/09/21 04:45:01;;;;;;;84.72;53.72;;;33.50;99.90;;;;;;5134947;27;20102;-65
2023/09/21 04:47:28;;;;;;;93.85;56.63;;;33.60;99.90;;;;;;5135221;27;20540;-66
2023/09/21 04:49:54;;;;;;;100.53;62.25;;;33.60;99.90;;;;;;5134646;27;20054;-65
2023/09/21 04:52:23;;;;;;;92.10;58.72;;;33.70;99.90;;;;;;5135355;27;20027;-65
2023/09/21 04:54:51;;;;;;;86.40;52.38;;;33.80;99.90;;;;;;5135347;27;20490;-65
2023/09/21 04:57:20;;;;;;;81.63;49.42;;;33.80;99.90;;;;;;5134934;28;20023;-65
2023/09/21 04:59:47;;;;;;;84.93;54.25;;;33.80;99.90;;;;;;5134666;28;20023;-65
2023/09/21 05:02:14;;;;;;;72.28;45.92;;;33.80;99.90;;;;;;5134828;28;20023;-66
2023/09/21 05:04:41;;;;;;;65.90;41.15;;;33.80;99.90;;;;;;5134839;28;20049;-65
2023/09/21 05:07:08;;;;;;;75.05;46.60;;;34.00;99.90;;;;;;5135514;27;20015;-65
2023/09/21 05:09:35;;;;;;;71.65;47.17;;;34.10;99.90;;;;;;5139050;27;20023;-66
2023/09/21 05:12:03;;;;;;;75.28;48.40;;;34.10;99.90;;;;;;5138483;27;20072;-66
2023/09/21 05:14:30;;;;;;;52.83;36.97;;;34.20;99.90;;;;;;5138189;27;20027;-66
2023/09/21 05:16:58;;;;;;;49.58;32.22;;;34.30;99.90;;;;;;5138408;27;20019;-67
2023/09/21 05:19:26;;;;;;;53.38;38.47;;;34.30;99.90;;;;;;5138263;27;20479;-67
2023/09/21 05:21:56;;;;;;;62.00;40.65;;;34.40;99.90;;;;;;5138180;27;20046;-67
2023/09/21 05:24:25;;;;;;;60.88;39.95;;;34.30;99.90;;;;;;5138039;27;20023;-68
2023/09/21 05:26:53;;;;;;;53.05;33.28;;;34.20;99.90;;;;;;5138067;27;20023;-67
2023/09/21 05:29:20;;;;;;;42.22;31.10;;;34.40;99.90;;;;;;5137908;27;20019;-66
2023/09/21 05:31:49;;;;;;;42.63;29.48;;;34.50;99.90;;;;;;5138121;27;20106;-68
2023/09/21 05:34:16;;;;;;;35.78;26.73;;;34.50;99.90;;;;;;5137966;27;20069;-66
2023/09/21 05:36:46;;;;;;;36.08;26.35;;;34.50;99.90;;;;;;5137947;27;20528;-67
2023/09/21 05:39:17;;;;;;;36.08;25.77;;;34.50;99.90;;;;;;5137792;27;20084;-67
2023/09/21 05:41:44;;;;;;;31.77;25.70;;;34.60;99.90;;;;;;5137817;27;20027;-66
2023/09/21 05:44:11;;;;;;;41.00;30.95;;;34.70;99.90;;;;;;5137789;27;20423;-67
2023/09/21 05:46:40;;;;;;;36.72;26.73;;;34.70;99.90;;;;;;5137751;27;20019;-68
2023/09/21 05:49:09;;;;;;;27.52;23.33;;;34.80;99.90;;;;;;5137540;27;20046;-67
2023/09/21 05:51:36;;;;;;;37.88;22.33;;;34.90;99.90;;;;;;5137598;27;20505;-67
2023/09/21 05:54:03;;;;;;;35.08;21.42;;;34.90;99.90;;;;;;5137612;27;20019;-67
2023/09/21 05:56:31;;;;;;;27.48;20.83;;;35.00;99.90;;;;;;5137555;27;20537;-67
2023/09/21 05:58:59;;;;;;;30.25;20.63;;;35.00;99.90;;;;;;5137634;27;20019;-68
2023/09/21 06:01:31;;;;;;;30.25;20.35;;;35.00;99.90;;;;;;5137519;27;20030;-67
2023/09/21 06:03:59;;;;;;;;;;;35.00;99.90;;;;;;5137721;27;20031;-67
2023/09/21 06:06:30;;;;;;;32.50;20.00;;;35.00;99.90;;;;;;5137305;27;19933;-68
2023/09/21 06:08:57;;;;;;;29.25;21.25;;;35.00;99.90;;;;;;5137273;27;20383;-68
2023/09/21 06:11:26;;;;;;;27.10;20.90;;;35.10;99.90;;;;;;5137058;27;20150;-68
2023/09/21 06:13:54;;;;;;;28.08;20.52;;;35.10;99.90;;;;;;5137154;27;20023;-67
2023/09/21 06:16:21;;;;;;;27.17;20.25;;;35.20;99.90;;;;;;5137178;27;20026;-67
2023/09/21 06:18:49;;;;;;;25.13;19.95;;;35.20;99.90;;;;;;5135418;27;20023;-66
2023/09/21 06:21:17;;;;;;;24.92;21.02;;;35.20;97.50;;;;;;5135972;27;20019;-67
2023/09/21 06:23:44;;;;;;;26.63;20.50;;;35.30;97.70;;;;;;5136460;27;20023;-66
2023/09/21 06:26:15;;;;;;;26.13;20.75;;;35.30;99.40;;;;;;5136468;27;20483;-67
2023/09/21 06:28:44;;;;;;;29.73;21.67;;;35.30;99.00;;;;;;5136755;27;20027;-67
2023/09/21 06:31:13;;;;;;;25.85;20.20;;;35.40;99.40;;;;;;5155703;27;20083;-67
2023/09/21 06:33:42;;;;;;;30.77;22.08;;;35.40;99.50;;;;;;5157495;27;20467;-68
2023/09/21 06:36:20;;;;;;;29.75;22.08;;;35.40;99.80;;;;;;5157501;27;20021;-68
2023/09/21 06:38:52;;;;;;;28.70;21.60;;;35.40;99.90;;;;;;5157351;27;20023;-67
2023/09/21 06:41:18;;;;;;;24.95;20.73;;;35.50;99.00;;;;;;5157467;27;20031;-67
2023/09/21 06:43:45;;;;;;;28.08;20.52;;;35.50;99.40;;;;;;5137823;27;20424;-66
2023/09/21 06:46:12;;;;;;;28.17;20.13;;;35.50;99.00;;;;;;5125120;27;20032;-67
2023/09/21 06:48:41;;;;;;;31.80;20.50;;;35.60;98.40;;;;;;5116026;28;20032;-67
2023/09/21 06:51:08;;;;;;;25.02;20.50;;;35.70;97.80;;;;;;5115911;28;20031;-66
2023/09/21 06:53:36;;;;;;;28.25;21.55;;;35.80;97.10;;;;;;5123676;27;20019;-67
2023/09/21 06:56:03;;;;;;;25.77;21.30;;;35.90;97.20;;;;;;5124929;27;20140;-67
2023/09/21 06:58:30;;;;;;;33.00;23.15;;;35.90;96.50;;;;;;5127202;27;20026;-66
2023/09/21 07:00:58;;;;;;;28.65;22.63;;;36.00;96.70;;;;;;5126019;27;20012;-68
2023/09/21 07:03:25;;;;;;;31.90;24.73;;;36.00;97.00;;;;;;5124689;27;20020;-68
2023/09/21 07:05:52;;;;;;;34.67;27.45;;;36.00;97.10;;;;;;5126390;27;20019;-68
2023/09/21 07:08:20;;;;;;;36.35;26.65;;;36.00;94.80;;;;;;5126388;27;20024;-68
2023/09/21 07:10:48;;;;;;;36.15;25.80;;;36.10;95.60;;;;;;5124630;27;20109;-67
2023/09/21 07:13:18;;;;;;;43.53;24.42;;;36.10;95.50;;;;;;5126324;27;20027;-66
2023/09/21 07:15:45;;;;;;;32.83;23.83;;;36.20;95.60;;;;;;5126164;27;20072;-68
2023/09/21 07:18:12;;;;;;;28.80;21.95;;;36.30;95.80;;;;;;5125764;27;20026;-67
2023/09/21 07:20:39;;;;;;;28.30;21.65;;;36.20;94.80;;;;;;5127111;27;20015;-67
2023/09/21 07:23:05;;;;;;;28.70;22.40;;;36.30;94.70;;;;;;5125614;27;20482;-67
2023/09/21 07:25:32;;;;;;;31.63;25.27;;;36.30;94.70;;;;;;5125217;27;20019;-66
2023/09/21 07:27:58;;;;;;;30.27;24.20;;;36.30;93.80;;;;;;5126502;27;20031;-67
2023/09/21 07:30:25;;;;;;;31.30;25.70;;;36.50;93.20;;;;;;5124417;27;20529;-68
2023/09/21 07:32:55;;;;;;;52.17;36.75;;;36.30;92.60;;;;;;5135898;27;20030;-68
2023/09/21 07:35:21;;;;;;;52.97;39.33;;;36.30;93.80;;;;;;5126185;27;20042;-70
2023/09/21 07:37:51;;;;;;;51.85;37.10;;;36.50;93.40;;;;;;5131931;27;20015;-69
2023/09/21 07:40:18;;;;;;;44.40;33.03;;;36.40;93.60;;;;;;5135746;27;20474;-72
2023/09/21 07:42:48;;;;;;;39.65;32.35;;;36.40;94.00;;;;;;5135709;27;20020;-70
2023/09/21 07:45:15;;;;;;;38.25;31.17;;;36.40;94.00;;;;;;5135644;27;20034;-69
2023/09/21 07:47:43;;;;;;;41.10;32.53;;;36.40;94.10;;;;;;5135797;27;20092;-66
2023/09/21 07:50:09;;;;;;;61.05;40.17;;;36.40;94.40;;;;;;5135231;27;20115;-66
2023/09/21 07:52:37;;;;;;;49.90;38.78;;;36.50;93.30;;;;;;5135738;27;20027;-65
2023/09/21 07:55:04;;;;;;;69.10;47.05;;;36.60;93.30;;;;;;5135623;27;20011;-65
2023/09/21 07:57:39;;;;;;;63.60;48.35;;;36.60;93.40;;;;;;5135317;27;20110;-64
2023/09/21 08:00:09;;;;;;;55.13;43.83;;;36.70;93.30;;;;;;5135480;27;20016;-65
2023/09/21 08:02:36;;;;;;;62.63;45.67;;;36.80;93.70;;;;;;5135501;27;20052;-66
2023/09/21 08:05:04;;;;;;;59.90;44.80;;;36.70;93.50;;;;;;5135313;27;20023;-65
2023/09/21 08:07:32;;;;;;;67.05;48.08;;;36.90;93.00;;;;;;5135691;27;20027;-65
2023/09/21 08:10:03;;;;;;;97.60;69.43;;;36.90;93.20;;;;;;5135450;27;20046;-67
2023/09/21 08:12:30;;;;;;;94.78;67.35;;;36.80;92.70;;;;;;5135677;27;20598;-68
2023/09/21 08:14:57;;;;;;;88.22;63.50;;;36.70;93.70;;;;;;5135835;27;20016;-66
2023/09/21 08:17:24;;;;;;;92.78;61.75;;;36.70;93.90;;;;;;5135562;27;20083;-67
2023/09/21 08:19:50;;;;;;;122.20;72.22;;;36.50;95.10;;;;;;5135072;27;20026;-64
2023/09/21 08:22:18;;;;;;;93.70;57.72;;;36.40;95.90;;;;;;5131276;27;20039;-65
2023/09/21 08:24:45;;;;;;;93.30;55.92;;;36.00;96.40;;;;;;5124268;27;20046;-67
2023/09/21 08:27:11;;;;;;;83.45;50.10;;;35.80;96.60;;;;;;5125835;27;20077;-66
2023/09/21 08:29:38;;;;;;;88.97;49.42;;;35.50;96.60;;;;;;5125743;27;20099;-66
2023/09/21 08:32:04;;;;;;;85.75;53.05;;;35.40;97.70;;;;;;5123739;27;20023;-67
2023/09/21 08:34:31;;;;;;;84.85;55.75;;;35.40;97.80;;;;;;5123832;27;20011;-66
2023/09/21 08:36:58;;;;;;;96.13;60.00;;;35.30;98.30;;;;;;5125737;27;20146;-67
2023/09/21 08:39:25;;;;;;;106.68;60.42;;;35.30;98.40;;;;;;5123758;27;20058;-65
2023/09/21 08:41:52;;;;;;;101.70;59.05;;;35.10;98.20;;;;;;5123484;27;20531;-67
2023/09/21 08:44:18;;;;;;;91.28;54.35;;;35.00;99.00;;;;;;5125787;27;20467;-67
2023/09/21 08:46:46;;;;;;;83.72;55.78;;;35.00;99.60;;;;;;5125925;27;20054;-67
2023/09/21 08:49:14;;;;;;;90.60;53.58;;;35.00;98.80;;;;;;5124728;28;20088;-66
2023/09/21 08:51:42;;;;;;;89.13;57.08;;;34.80;99.40;;;;;;5126173;27;20099;-68
2023/09/21 08:54:13;;;;;;;88.45;55.33;;;34.80;99.50;;;;;;5104485;28;20050;-68
2023/09/21 08:56:42;;;;;;;83.88;52.53;;;34.80;99.60;;;;;;5102762;28;20019;-68
2023/09/21 08:59:08;;;;;;;76.78;48.20;;;34.70;99.10;;;;;;5103966;28;20468;-68
2023/09/21 09:01:36;;;;;;;73.45;48.55;;;34.70;99.30;;;;;;5104629;28;20020;-69
2023/09/21 09:04:03;;;;;;;83.15;51.30;;;34.70;99.80;;;;;;5104641;28;20591;-67
2023/09/21 09:06:30;;;;;;;83.70;52.60;;;34.60;99.30;;;;;;5104560;28;20032;-68
2023/09/21 09:08:57;;;;;;;138.95;97.20;;;34.70;99.60;;;;;;5111552;28;20035;-67
2023/09/21 09:11:34;;;;;;;102.63;67.45;;;34.70;99.50;;;;;;5102548;28;20059;-67
2023/09/21 09:14:02;;;;;;;92.43;58.83;;;34.70;99.30;;;;;;5094056;28;20024;-68
2023/09/21 09:16:31;;;;;;;112.65;68.00;;;34.50;98.70;;;;;;5093450;28;20484;-69
2023/09/21 09:18:58;;;;;;;89.78;52.00;;;34.50;99.10;;;;;;5094297;28;20032;-68
2023/09/21 09:21:25;;;;;;;85.68;45.08;;;34.50;99.50;;;;;;5093878;28;20077;-68
2023/09/21 09:23:51;;;;;;;80.45;46.97;;;34.50;99.80;;;;;;5093617;28;20032;-68
2023/09/21 09:26:19;;;;;;;73.15;46.03;;;34.50;99.30;;;;;;5093735;28;20111;-67
2023/09/21 09:28:46;;;;;;;70.47;44.13;;;34.50;99.80;;;;;;5093348;28;20020;-68
2023/09/21 09:31:12;;;;;;;72.97;44.05;;;34.40;99.90;;;;;;5093951;28;20023;-67
2023/09/21 09:33:39;;;;;;;69.63;45.08;;;34.50;99.90;;;;;;5106154;28;20032;-67
2023/09/21 09:36:06;;;;;;;75.00;48.60;;;34.40;99.70;;;;;;5113801;28;20034;-67
2023/09/21 09:38:34;;;;;;;84.38;53.95;;;34.40;99.90;;;;;;5113307;28;20028;-67
2023/09/21 09:41:04;;;;;;;99.05;61.63;;;34.40;99.90;;;;;;5093284;28;20048;-67
2023/09/21 09:43:32;;;;;;;92.95;55.78;;;34.30;99.90;;;;;;5102256;28;20023;-67
2023/09/21 09:46:04;;;;;;;93.15;55.17;;;34.30;99.90;;;;;;5104475;28;20023;-66
2023/09/21 09:48:32;;;;;;;95.70;55.25;;;34.20;99.90;;;;;;5103943;28;20357;-67
2023/09/21 09:51:11;;;;;;;98.70;59.97;;;34.30;99.90;;;;;;5104036;28;20043;-68
2023/09/21 09:53:39;;;;;;;109.82;63.95;;;34.30;99.90;;;;;;5102149;28;20087;-66
2023/09/21 09:56:09;;;;;;;150.68;82.53;;;34.30;99.90;;;;;;5106756;28;20043;-66
2023/09/21 09:58:41;;;;;;;140.05;87.90;;;34.30;99.90;;;;;;5105163;28;20024;-66
2023/09/21 10:01:17;;;;;;;145.15;91.25;;;34.30;99.90;;;;;;5106460;28;20031;-66
2023/09/21 10:03:44;;;;;;;147.18;90.43;;;34.30;99.90;;;;;;5109425;28;20386;-66
2023/09/21 10:06:14;;;;;;;134.63;87.38;;;34.30;99.90;;;;;;5117515;28;20430;-71
2023/09/21 10:08:41;;;;;;;161.73;100.47;;;34.20;99.90;;;;;;5117531;28;20051;-70
2023/09/21 10:11:10;;;;;;;140.00;90.63;;;34.20;99.90;;;;;;5117123;28;20020;-69
2023/09/21 10:13:53;;;;;;;139.82;82.32;;;34.20;99.90;;;;;;5136870;27;20023;-70
2023/09/21 10:16:24;;;;;;;141.13;85.85;;;34.20;99.90;;;;;;5137547;27;20375;-71
2023/09/21 10:18:58;;;;;;;130.43;77.53;;;34.10;99.90;;;;;;5138022;27;20438;-71
2023/09/21 10:21:31;;;;;;;182.10;111.75;;;34.10;99.90;;;;;;5137985;27;20028;-71
2023/09/21 10:24:03;;;;;;;168.05;103.93;;;34.00;99.90;;;;;;5137187;27;20027;-70
2023/09/21 10:26:35;;;;;;;209.23;124.72;;;33.90;99.90;;;;;;5137210;27;20027;-70
2023/09/21 10:29:04;;;;;;;281.25;161.00;;;33.90;99.90;;;;;;5137180;27;20015;-71
2023/09/21 10:31:33;;;;;;;300.45;172.15;;;33.80;99.90;;;;;;5137428;27;20087;-70
2023/09/21 10:33:59;;;;;;;356.67;180.50;;;33.90;99.90;;;;;;5137305;27;20034;-69
2023/09/21 10:36:28;;;;;;;272.27;155.85;;;33.80;99.90;;;;;;5138118;27;20019;-67
2023/09/21 10:39:24;;;;;;;242.32;132.07;;;33.70;99.90;;;;;;5137291;27;20034;-68
2023/09/21 10:41:53;;;;;;;304.67;157.98;;;33.60;99.90;;;;;;5136995;27;20023;-67
2023/09/21 10:45:01;;;;;;;373.63;212.20;;;33.40;99.90;;;;;;5137297;27;20027;-67
2023/09/21 10:47:32;;;;;;;238.77;140.25;;;33.50;99.90;;;;;;5137110;27;20019;-67
2023/09/21 10:50:20;;;;;;;178.82;104.10;;;33.50;99.90;;;;;;5137119;27;20047;-66
2023/09/21 10:52:52;;;;;;;169.82;92.45;;;33.50;99.90;;;;;;5135488;27;20394;-66
2023/09/21 10:55:20;;;;;;;200.88;119.53;;;33.40;99.90;;;;;;5137369;27;20052;-66
2023/09/21 10:57:49;;;;;;;158.82;97.18;;;33.40;99.90;;;;;;5136827;27;20413;-67
2023/09/21 11:00:21;;;;;;;126.72;78.43;;;33.40;99.90;;;;;;5136806;27;20015;-67
2023/09/21 11:02:50;;;;;;;106.45;60.30;;;33.40;99.90;;;;;;5136564;27;20035;-68
2023/09/21 11:05:19;;;;;;;104.10;60.70;;;33.40;99.90;;;;;;5136443;27;20096;-68
2023/09/21 11:07:51;;;;;;;88.78;50.42;;;33.30;99.90;;;;;;5136727;27;20027;-69
2023/09/21 11:10:18;;;;;;;80.70;49.85;;;33.20;99.90;;;;;;5136361;27;20050;-68
2023/09/21 11:12:45;;;;;;;79.40;49.88;;;33.10;99.90;;;;;;5136598;27;20035;-68
2023/09/21 11:15:16;;;;;;;85.88;49.35;;;33.10;99.90;;;;;;5136613;27;20015;-67
2023/09/21 11:17:44;;;;;;;73.40;44.65;;;33.10;99.90;;;;;;5136366;27;20031;-67
2023/09/21 11:20:14;;;;;;;75.65;43.17;;;33.10;99.90;;;;;;5136418;27;20046;-67
2023/09/21 11:22:44;;;;;;;61.03;42.70;;;32.90;99.90;;;;;;5136040;27;20076;-67
2023/09/21 11:25:14;;;;;;;70.90;45.15;;;32.90;99.90;;;;;;5136548;27;20027;-67
2023/09/21 11:27:42;;;;;;;70.60;46.03;;;32.90;99.90;;;;;;5136265;27;20035;-67
2023/09/21 11:30:11;;;;;;;78.22;50.13;;;32.90;99.90;;;;;;5135958;27;20027;-67
2023/09/21 11:32:45;;;;;;;88.93;52.50;;;32.90;99.90;;;;;;5104348;27;20034;-67
2023/09/21 11:35:12;;;;;;;68.85;44.10;;;32.80;99.90;;;;;;5096698;28;20099;-66
2023/09/21 11:37:38;;;;;;;74.05;44.67;;;32.80;99.90;;;;;;5115497;28;20472;-67
2023/09/21 11:40:11;;;;;;;82.93;49.45;;;32.70;99.90;;;;;;5115434;28;20062;-66
2023/09/21 11:42:43;;;;;;;71.75;45.20;;;32.70;99.90;;;;;;5115562;28;20019;-67
2023/09/21 11:45:27;;;;;;;70.50;45.90;;;32.70;99.90;;;;;;5115351;28;20028;-67
2023/09/21 11:47:56;;;;;;;62.97;41.25;;;32.70;99.90;;;;;;5115039;28;20067;-65
2023/09/21 11:50:25;;;;;;;49.17;38.08;;;32.60;99.90;;;;;;5114663;28;20054;-66
2023/09/21 11:52:54;;;;;;;57.58;36.80;;;32.60;99.90;;;;;;5115383;28;20468;-66
2023/09/21 11:55:24;;;;;;;55.05;35.83;;;32.60;99.90;;;;;;5114970;28;20032;-66
2023/09/21 11:57:52;;;;;;;60.90;40.30;;;32.50;99.90;;;;;;5095473;28;20028;-67
2023/09/21 12:00:38;;;;;;;60.60;40.60;;;32.40;99.90;;;;;;5094623;28;20468;-67
2023/09/21 12:03:05;;;;;;;62.05;40.95;;;32.40;99.90;;;;;;5094181;28;20431;-67
2023/09/21 12:05:32;;;;;;;54.22;38.65;;;32.40;99.90;;;;;;5094460;28;20024;-67
2023/09/21 12:07:58;;;;;;;59.10;38.75;;;32.30;99.90;;;;;;5094411;28;20103;-68
2023/09/21 12:10:25;;;;;;;65.72;43.78;;;32.30;99.90;;;;;;5098396;28;20020;-66
2023/09/21 12:12:52;;;;;;;69.60;46.72;;;32.30;99.90;;;;;;5104544;28;20149;-68
2023/09/21 12:15:19;;;;;;;78.70;50.33;;;32.20;99.90;;;;;;5103517;28;20468;-67
2023/09/21 12:17:46;;;;;;;93.03;59.75;;;32.20;99.90;;;;;;5102584;28;20007;-68
2023/09/21 12:20:17;;;;;;;99.85;64.38;;;32.20;99.90;;;;;;5104835;28;20016;-69
2023/09/21 12:22:45;;;;;;;141.63;86.35;;;32.20;99.90;;;;;;5103971;28;20042;-68
2023/09/21 12:25:12;;;;;;;152.43;91.30;;;32.20;99.90;;;;;;5102376;28;20063;-67
2023/09/21 12:27:39;;;;;;;140.25;88.82;;;32.10;99.90;;;;;;5104114;28;20019;-68
2023/09/21 12:30:17;;;;;;;144.00;89.45;;;32.10;99.90;;;;;;5101613;28;20060;-68
2023/09/21 12:32:44;;;;;;;133.20;82.70;;;32.10;99.90;;;;;;5104522;28;20106;-68
2023/09/21 12:35:17;;;;;;;128.70;80.63;;;32.10;99.90;;;;;;5104616;28;20022;-69